Time;durP1;ratioP1;P1;durP2;ratioP2;P2;SDS_P1;SDS_P2;PMS_P1;PMS_P2;Temp;Humidity;BMP_temperature;BMP_pressure;BME280_temperature;BME280_humidity;BME280_pressure;Samples;Min_cycle;Max_cycle;Signal;HPM_P1;HPM_P2
2020/12/07 00:00:13;;;;;;;28.77;16.07;;;;;;;4.56;76.38;99437.93;1748993;82;21172;-74
2020/12/07 00:02:41;;;;;;;31.35;17.30;;;;;;;4.53;76.43;99424.56;1782505;79;21136;-74
2020/12/07 00:05:08;;;;;;;30.75;16.15;;;;;;;4.50;76.47;99416.44;1791729;80;21112;-74
2020/12/07 00:07:34;;;;;;;33.78;18.23;;;;;;;4.45;76.53;99421.37;1791787;80;21155;-74
2020/12/07 00:10:02;;;;;;;32.73;17.77;;;;;;;4.40;76.58;99407.79;1791765;79;21600;-74
2020/12/07 00:12:32;;;;;;;30.70;15.50;;;;;;;4.35;76.63;99411.41;1791915;80;21160;-74
2020/12/07 00:14:59;;;;;;;28.75;14.65;;;;;;;4.30;76.67;99401.79;1791888;79;21116;-74
2020/12/07 00:17:26;;;;;;;32.00;16.90;;;;;;;4.27;76.72;99415.30;1791890;79;21124;-74
2020/12/07 00:19:52;;;;;;;33.50;18.23;;;;;;;4.22;76.75;99399.08;1791728;79;21167;-74
2020/12/07 00:22:26;;;;;;;33.00;17.62;;;;;;;4.19;76.81;99405.99;1785982;80;21194;-74
2020/12/07 00:24:53;;;;;;;36.17;19.42;;;;;;;4.14;76.86;99412.73;1756917;81;21168;-74
2020/12/07 00:27:26;;;;;;;29.95;16.60;;;;;;;4.08;76.90;99415.50;1757110;81;21136;-74
2020/12/07 00:29:52;;;;;;;32.80;17.07;;;;;;;4.00;76.92;99414.10;1723572;82;21302;-74
2020/12/07 00:32:20;;;;;;;30.57;16.60;;;;;;;3.95;76.97;99422.95;1726576;82;21137;-74
2020/12/07 00:34:47;;;;;;;28.25;15.08;;;;;;;3.90;77.03;99422.59;1726650;83;21464;-74
2020/12/07 00:37:13;;;;;;;29.92;15.85;;;;;;;3.84;77.12;99424.48;1707354;84;21175;-74
2020/12/07 00:39:39;;;;;;;32.15;17.17;;;;;;;3.79;77.16;99428.09;1726711;83;21130;-73
2020/12/07 00:42:07;;;;;;;33.25;17.50;;;;;;;3.74;77.22;99426.38;1707683;84;21169;-74
2020/12/07 00:44:33;;;;;;;26.57;14.93;;;;;;;3.68;77.26;99425.67;1679259;84;21152;-74
2020/12/07 00:46:59;;;;;;;30.70;14.98;;;;;;;3.69;77.34;99422.06;1707749;83;22213;-74
2020/12/07 00:49:25;;;;;;;30.45;14.10;;;;;;;3.67;77.44;99421.36;1707555;83;21627;-73
2020/12/07 00:51:52;;;;;;;26.82;14.60;;;;;;;3.64;77.55;99413.77;1726572;83;21124;-74
2020/12/07 00:54:18;;;;;;;32.10;15.75;;;;;;;3.65;77.60;99414.11;1707639;84;21163;-74
2020/12/07 00:56:44;;;;;;;25.23;14.15;;;;;;;3.63;77.67;99416.05;1707712;83;21147;-74
2020/12/07 00:59:11;;;;;;;28.65;15.70;;;;;;;3.61;77.77;99410.11;1707686;84;21212;-73
2020/12/07 01:01:38;;;;;;;30.20;16.65;;;;;;;3.60;77.84;99408.45;1707776;84;21160;-73
2020/12/07 01:04:04;;;;;;;27.70;15.28;;;;;;;3.58;77.90;99410.41;1723405;82;21172;-74
2020/12/07 01:06:31;;;;;;;31.95;15.00;;;;;;;3.57;77.95;99410.90;1724178;83;21612;-74
2020/12/07 01:08:58;;;;;;;29.30;15.25;;;;;;;3.57;78.01;99410.90;1723982;83;21137;-73
2020/12/07 01:11:24;;;;;;;32.20;16.32;;;;;;;3.56;78.06;99396.05;1724462;82;22094;-73
2020/12/07 01:13:50;;;;;;;27.52;14.85;;;;;;;3.56;78.10;99399.17;1724293;83;21195;-74
2020/12/07 01:16:24;;;;;;;35.50;17.10;;;;;;;3.53;78.19;99394.55;1724335;83;21139;-73
2020/12/07 01:18:50;;;;;;;31.85;15.53;;;;;;;3.56;78.24;99379.41;1724426;83;21602;-73
2020/12/07 01:21:17;;;;;;;30.30;15.08;;;;;;;3.51;78.27;99380.71;1724419;83;21561;-73
2020/12/07 01:23:47;;;;;;;34.23;17.45;;;;;;;3.52;78.32;99381.03;1724296;82;21287;-73
2020/12/07 01:26:14;;;;;;;27.25;14.73;;;;;;;3.52;78.34;99377.08;1719672;83;25999;-74
2020/12/07 01:28:41;;;;;;;25.68;15.23;;;;;;;3.54;78.41;99366.39;1716780;82;21200;-73
2020/12/07 01:31:07;;;;;;;26.65;15.90;;;;;;;3.56;78.46;99363.59;1719506;83;21136;-73
2020/12/07 01:33:33;;;;;;;30.57;16.23;;;;;;;3.55;78.51;99345.66;1719549;83;21136;-73
2020/12/07 01:36:00;;;;;;;40.80;19.62;;;;;;;3.52;78.56;99353.35;1719319;83;21271;-73
2020/12/07 01:38:26;;;;;;;28.65;15.28;;;;;;;3.50;78.59;99342.15;1719422;83;21589;-73
2020/12/07 01:40:52;;;;;;;25.90;13.53;;;;;;;3.48;78.61;99337.50;1719592;83;21157;-74
2020/12/07 01:43:19;;;;;;;30.05;14.85;;;;;;;3.49;78.67;99343.12;1719400;83;21128;-73
2020/12/07 01:45:46;;;;;;;33.45;17.00;;;;;;;3.49;78.70;99352.83;1719395;83;21144;-73
2020/12/07 01:48:13;;;;;;;30.68;15.68;;;;;;;3.45;78.72;99349.66;1719367;83;21267;-73
2020/12/07 01:50:40;;;;;;;28.80;14.65;;;;;;;3.44;78.75;99360.37;1703975;83;21586;-73
2020/12/07 01:53:09;;;;;;;29.52;16.32;;;;;;;3.41;78.76;99346.19;1732331;82;21589;-74
2020/12/07 01:55:37;;;;;;;25.88;14.00;;;;;;;3.38;78.79;99348.61;1719781;83;21160;-73
2020/12/07 01:58:03;;;;;;;26.25;12.25;;;;;;;3.37;78.82;99358.83;1719698;83;21188;-73
2020/12/07 02:00:30;;;;;;;21.30;13.22;;;;;;;3.35;78.87;99369.16;1719808;83;21326;-73
2020/12/07 02:02:56;;;;;;;23.95;14.23;;;;;;;3.34;78.85;99364.89;1720228;81;21140;-74
2020/12/07 02:05:23;;;;;;;30.10;15.95;;;;;;;3.30;78.88;99366.99;1742602;81;21148;-73
2020/12/07 02:07:52;;;;;;;27.17;15.18;;;;;;;3.27;78.91;99362.00;1771474;80;21136;-74
2020/12/07 02:10:18;;;;;;;25.75;13.98;;;;;;;3.23;78.92;99359.34;1786044;80;21552;-74
2020/12/07 02:12:44;;;;;;;29.70;14.70;;;;;;;3.21;78.95;99366.55;1786643;80;21200;-74
2020/12/07 02:15:10;;;;;;;24.43;13.88;;;;;;;3.19;78.99;99363.73;1749227;82;21188;-74
2020/12/07 02:17:36;;;;;;;23.00;14.07;;;;;;;3.18;79.02;99369.97;1786324;80;21640;-74
2020/12/07 02:20:03;;;;;;;28.85;15.35;;;;;;;3.17;79.07;99371.77;1785908;80;21609;-74
2020/12/07 02:22:29;;;;;;;27.37;13.93;;;;;;;3.16;79.10;99361.40;1786345;80;21663;-74
2020/12/07 02:24:55;;;;;;;31.65;16.95;;;;;;;3.14;79.19;99374.70;1749280;82;21193;-74
2020/12/07 02:27:21;;;;;;;26.75;13.78;;;;;;;3.16;79.26;99362.72;1785913;80;21179;-74
2020/12/07 02:29:48;;;;;;;24.90;14.55;;;;;;;3.15;79.29;99368.95;1785957;80;21129;-74
2020/12/07 02:32:16;;;;;;;29.65;14.47;;;;;;;3.14;79.31;99361.53;1785956;80;21576;-74
2020/12/07 02:34:42;;;;;;;26.12;13.78;;;;;;;3.11;79.35;99365.78;1786079;80;21144;-74
2020/12/07 02:37:09;;;;;;;28.60;14.18;;;;;;;3.12;79.47;99363.50;1785895;80;21186;-74
2020/12/07 02:39:37;;;;;;;29.15;15.65;;;;;;;3.14;79.53;99358.90;1786354;80;21148;-74
2020/12/07 02:42:04;;;;;;;24.77;12.98;;;;;;;3.12;79.54;99367.45;1786914;80;21139;-74
2020/12/07 02:44:30;;;;;;;24.37;13.60;;;;;;;3.12;79.59;99354.77;1786729;80;21180;-74
2020/12/07 02:46:58;;;;;;;24.15;13.32;;;;;;;3.12;79.62;99366.14;1749366;82;21153;-74
2020/12/07 02:49:27;;;;;;;29.05;13.25;;;;;;;3.10;79.71;99364.12;1786685;80;21291;-74
2020/12/07 02:51:53;;;;;;;27.77;15.78;;;;;;;3.10;79.75;99358.85;1785937;79;21592;-74
2020/12/07 02:54:19;;;;;;;30.43;15.00;;;;;;;3.08;79.77;99351.59;1749341;81;21838;-74
2020/12/07 02:56:46;;;;;;;29.45;13.68;;;;;;;3.08;79.81;99354.23;1786907;80;21171;-74
2020/12/07 02:59:12;;;;;;;26.85;14.53;;;;;;;3.05;79.83;99357.65;1786601;80;21156;-74
2020/12/07 03:01:38;;;;;;;26.35;13.10;;;;;;;3.05;79.85;99357.65;1786883;80;21262;-74
2020/12/07 03:04:04;;;;;;;31.93;16.60;;;;;;;3.04;79.92;99371.30;1773043;80;21128;-74
2020/12/07 03:06:31;;;;;;;29.35;15.23;;;;;;;3.05;79.94;99354.53;1766050;81;21147;-74
2020/12/07 03:08:57;;;;;;;27.27;15.85;;;;;;;3.03;79.96;99346.77;1775872;80;21164;-74
2020/12/07 03:11:23;;;;;;;28.62;15.30;;;;;;;3.05;80.00;99351.06;1784040;80;21132;-74
2020/12/07 03:13:50;;;;;;;24.87;12.98;;;;;;;3.02;80.04;99346.94;1783855;79;21727;-74
2020/12/07 03:16:16;;;;;;;22.70;12.47;;;;;;;3.01;80.08;99361.06;1783646;79;21172;-74
2020/12/07 03:18:42;;;;;;;28.38;14.83;;;;;;;3.01;80.08;99347.90;1784060;80;21676;-74
2020/12/07 03:21:09;;;;;;;22.32;12.70;;;;;;;3.00;80.12;99364.19;1783779;80;21525;-73
2020/12/07 03:23:35;;;;;;;28.62;15.10;;;;;;;3.00;80.19;99355.45;1784104;80;21136;-74
2020/12/07 03:26:01;;;;;;;28.62;15.35;;;;;;;2.97;80.16;99360.53;1781600;80;21267;-74
2020/12/07 03:28:27;;;;;;;23.25;12.45;;;;;;;2.97;80.20;99355.75;1766305;81;21136;-74
2020/12/07 03:30:54;;;;;;;25.05;14.00;;;;;;;2.95;80.23;99360.34;1766265;81;21529;-74
2020/12/07 03:33:20;;;;;;;24.07;13.58;;;;;;;2.93;80.21;99359.64;1765767;81;21259;-74
2020/12/07 03:35:46;;;;;;;25.55;13.93;;;;;;;2.92;80.25;99354.06;1766223;81;21607;-74
2020/12/07 03:38:13;;;;;;;23.27;14.83;;;;;;;2.91;80.30;99366.39;1765815;81;21238;-74
2020/12/07 03:40:39;;;;;;;30.15;16.48;;;;;;;2.90;80.30;99362.09;1766274;81;21159;-74
2020/12/07 03:43:05;;;;;;;31.02;14.53;;;;;;;2.88;80.30;99364.55;1766268;81;21112;-74
2020/12/07 03:45:31;;;;;;;26.93;15.58;;;;;;;2.84;80.32;99369.75;1766123;81;21156;-74
2020/12/07 03:47:58;;;;;;;25.82;14.33;;;;;;;2.80;80.32;99364.44;1781850;80;21139;-74
2020/12/07 03:50:24;;;;;;;28.10;14.75;;;;;;;2.80;80.31;99369.70;1783836;80;22245;-74
2020/12/07 03:52:51;;;;;;;28.35;16.12;;;;;;;2.77;80.34;99367.36;1783971;80;21608;-74
2020/12/07 03:55:17;;;;;;;26.40;14.87;;;;;;;2.75;80.36;99368.81;1783966;80;21135;-74
2020/12/07 03:57:43;;;;;;;22.10;13.53;;;;;;;2.72;80.37;99356.43;1784053;80;21180;-74
2020/12/07 04:00:09;;;;;;;25.43;13.10;;;;;;;2.72;80.38;99359.06;1783689;80;21140;-74
2020/12/07 04:02:36;;;;;;;24.47;14.60;;;;;;;2.74;80.43;99368.98;1775634;80;21136;-74
2020/12/07 04:05:11;;;;;;;29.40;14.35;;;;;;;2.72;80.44;99365.64;1784811;80;21176;-74
2020/12/07 04:07:31;;;;;;;25.60;13.70;;;;;;;2.71;80.53;99358.74;1784474;80;21133;-74
2020/12/07 04:09:57;;;;;;;29.82;16.30;;;;;;;2.71;80.54;99361.37;1786042;80;21148;-74
2020/12/07 04:12:24;;;;;;;24.63;13.70;;;;;;;2.70;80.58;99362.34;1785969;80;21163;-74
2020/12/07 04:14:50;;;;;;;25.85;13.88;;;;;;;2.69;80.60;99359.36;1785926;80;21255;-74
2020/12/07 04:17:16;;;;;;;25.62;13.65;;;;;;;2.69;80.62;99365.45;1785843;80;21164;-73
2020/12/07 04:19:42;;;;;;;22.95;12.90;;;;;;;2.69;80.65;99365.94;1785861;80;21156;-74
2020/12/07 04:22:09;;;;;;;24.25;13.85;;;;;;;2.67;80.67;99355.57;1785908;80;21121;-74
2020/12/07 04:24:35;;;;;;;27.55;15.68;;;;;;;2.68;80.69;99361.64;1786049;80;21561;-74
2020/12/07 04:27:01;;;;;;;26.05;15.85;;;;;;;2.68;80.72;99369.53;1785901;80;21565;-74
2020/12/07 04:29:27;;;;;;;26.55;15.98;;;;;;;2.67;80.78;99367.90;1785860;80;21163;-74
2020/12/07 04:31:54;;;;;;;26.97;16.23;;;;;;;2.66;80.80;99372.33;1785998;80;21151;-74
2020/12/07 04:34:20;;;;;;;27.07;14.98;;;;;;;2.65;80.81;99361.94;1785923;80;21147;-73
2020/12/07 04:36:46;;;;;;;19.62;12.23;;;;;;;2.64;80.82;99364.25;1786112;80;21180;-74
2020/12/07 04:39:12;;;;;;;24.75;15.15;;;;;;;2.64;80.86;99361.61;1785877;80;21148;-74
2020/12/07 04:41:42;;;;;;;24.85;15.85;;;;;;;2.63;80.87;99359.47;1786231;80;21120;-74
2020/12/07 04:44:09;;;;;;;22.32;14.30;;;;;;;2.65;80.89;99367.20;1786202;80;21581;-74
2020/12/07 04:46:35;;;;;;;23.60;13.18;;;;;;;2.64;80.90;99355.03;1786203;80;21545;-74
2020/12/07 04:49:02;;;;;;;26.40;14.73;;;;;;;2.65;80.92;99352.72;1786059;80;21139;-74
2020/12/07 04:51:31;;;;;;;24.65;14.65;;;;;;;2.64;80.94;99355.84;1785634;80;21628;-73
2020/12/07 04:53:57;;;;;;;22.50;13.03;;;;;;;2.62;80.93;99355.64;1779121;80;21628;-74
2020/12/07 04:56:23;;;;;;;26.30;13.98;;;;;;;2.62;80.95;99353.02;1786078;80;21553;-73
2020/12/07 04:58:50;;;;;;;26.27;15.40;;;;;;;2.63;80.96;99358.63;1786132;80;21203;-73
2020/12/07 05:01:16;;;;;;;25.43;14.87;;;;;;;2.65;80.97;99362.77;1785970;80;21140;-73
2020/12/07 05:03:42;;;;;;;21.90;13.38;;;;;;;2.66;80.98;99360.48;1783340;80;21190;-73
2020/12/07 05:06:13;;;;;;;23.83;13.72;;;;;;;2.66;80.99;99360.97;1774776;80;21160;-73
2020/12/07 05:08:39;;;;;;;24.77;13.53;;;;;;;2.65;81.02;99352.23;1774653;80;21140;-73
2020/12/07 05:11:05;;;;;;;23.40;13.85;;;;;;;2.64;81.00;99357.15;1774813;80;21555;-73
2020/12/07 05:16:30;;;;;;;25.35;14.65;;;;;;;2.71;81.03;99345.58;1847140;77;23344;-74
2020/12/07 05:18:56;;;;;;;26.25;15.43;;;;;;;2.63;81.02;99349.42;1792154;80;21124;-74
2020/12/07 05:21:23;;;;;;;26.48;15.08;;;;;;;2.62;81.02;99358.28;1791814;80;21267;-74
2020/12/07 05:23:52;;;;;;;27.60;14.65;;;;;;;2.60;80.99;99357.12;1761352;80;20965;-74
2020/12/07 05:26:20;;;;;;;31.62;14.00;;;;;;;2.60;81.03;99356.30;1792185;80;21177;-74
2020/12/07 05:28:50;;;;;;;159.97;70.62;;;;;;;2.60;81.06;99359.76;1792113;80;21123;-74
2020/12/07 05:31:17;;;;;;;263.98;115.77;;;;;;;2.60;81.03;99352.34;1791836;80;21537;-74
2020/12/07 05:33:45;;;;;;;192.35;81.53;;;;;;;2.61;81.05;99346.08;1791861;80;21193;-74
2020/12/07 05:36:11;;;;;;;93.50;43.65;;;;;;;2.62;81.08;99335.91;1823043;78;21191;-74
2020/12/07 05:38:37;;;;;;;134.60;61.63;;;;;;;2.62;81.07;99351.70;1823876;78;21155;-74
2020/12/07 05:41:04;;;;;;;98.87;49.77;;;;;;;2.61;81.08;99343.45;1824627;78;21143;-74
2020/12/07 05:43:31;;;;;;;139.65;70.60;;;;;;;2.60;81.08;99332.61;1795127;78;21529;-74
2020/12/07 05:45:58;;;;;;;149.00;64.32;;;;;;;2.62;81.08;99341.17;1794181;78;22155;-74
2020/12/07 05:48:30;;;;;;;192.20;75.97;;;;;;;2.62;81.08;99343.80;1791624;80;21144;-74
2020/12/07 05:51:02;;;;;;;124.58;54.13;;;;;;;2.62;81.10;99338.54;1790720;80;21179;-74
2020/12/07 05:53:28;;;;;;;99.52;41.53;;;;;;;2.64;81.10;99343.19;1791790;80;21108;-74
2020/12/07 05:55:55;;;;;;;140.28;51.15;;;;;;;2.65;81.10;99341.71;1791837;80;21128;-74
2020/12/07 05:58:22;;;;;;;80.05;31.97;;;;;;;2.64;81.10;99344.51;1792162;80;21185;-74
2020/12/07 06:00:49;;;;;;;83.72;30.85;;;;;;;2.64;81.11;99347.94;1803003;78;21372;-74
2020/12/07 06:03:17;;;;;;;75.40;26.40;;;;;;;2.63;81.11;99348.10;1791307;78;21131;-74
2020/12/07 06:05:46;;;;;;;90.80;32.95;;;;;;;2.64;81.11;99361.61;1792880;78;21574;-74
2020/12/07 06:08:25;;;;;;;60.88;25.17;;;;;;;2.64;81.14;99362.92;1824366;78;21131;-74
2020/12/07 06:11:05;;;;;;;51.83;23.65;;;;;;;2.62;81.15;99356.96;1824747;78;22146;-74
2020/12/07 06:13:31;;;;;;;50.88;22.67;;;;;;;2.60;81.13;99369.45;1794686;78;21520;-74
2020/12/07 06:15:58;;;;;;;46.25;21.30;;;;;;;2.59;81.13;99359.89;1800913;78;21187;-74
2020/12/07 06:18:29;;;;;;;28.83;17.12;;;;;;;2.59;81.12;99372.56;1786163;80;21103;-74
2020/12/07 06:20:58;;;;;;;26.93;15.80;;;;;;;2.60;81.15;99370.77;1772238;80;21143;-74
2020/12/07 06:23:40;;;;;;;38.83;18.70;;;;;;;2.60;81.17;99368.97;1772103;80;21203;-74
2020/12/07 06:26:08;;;;;;;29.15;16.27;;;;;;;2.60;81.13;99361.55;1763351;80;21141;-74
2020/12/07 06:28:37;;;;;;;30.23;17.80;;;;;;;2.59;81.15;99371.73;1756807;81;21185;-74
2020/12/07 06:31:14;;;;;;;31.33;16.70;;;;;;;2.59;81.15;99373.05;1756238;81;21610;-74
2020/12/07 06:33:50;;;;;;;26.85;14.65;;;;;;;2.56;81.14;99378.60;1758951;80;21158;-74
2020/12/07 06:36:32;;;;;;;26.77;14.95;;;;;;;2.55;81.13;99383.03;1756873;80;21134;-74
2020/12/07 06:39:02;;;;;;;27.02;15.65;;;;;;;2.55;81.11;99379.56;1756739;80;21194;-74
2020/12/07 06:41:37;;;;;;;21.10;12.23;;;;;;;2.54;81.10;99386.63;1757040;80;21183;-74
2020/12/07 06:44:12;;;;;;;22.35;13.03;;;;;;;2.53;81.12;99392.38;1756814;80;21627;-74
2020/12/07 06:47:03;;;;;;;24.57;15.32;;;;;;;2.53;81.12;99393.69;1756850;81;21146;-74
2020/12/07 06:49:55;;;;;;;24.02;12.60;;;;;;;2.53;81.10;99385.47;1756916;81;21639;-74
2020/12/07 06:52:23;;;;;;;193.25;66.25;;;;;;;2.53;81.11;99391.05;1756789;81;21210;-74
2020/12/07 06:55:11;;;;;;;204.30;74.00;;;;;;;2.55;81.09;99404.56;1756913;80;21982;-74
2020/12/07 06:57:44;;;;;;;401.40;147.02;;;;;;;2.56;81.12;99400.97;1760079;80;21155;-74
2020/12/07 07:00:24;;;;;;;198.97;73.57;;;;;;;2.58;81.09;99401.64;1787974;80;21160;-74
2020/12/07 07:02:57;;;;;;;129.87;48.33;;;;;;;2.57;81.10;99393.42;1788307;80;21197;-74
2020/12/07 07:05:26;;;;;;;105.00;36.25;;;;;;;2.58;81.10;99392.43;1785532;80;21160;-74
2020/12/07 07:07:53;;;;;;;90.95;32.90;;;;;;;2.61;81.08;99388.19;1788054;80;21148;-74
2020/12/07 07:10:19;;;;;;;113.42;38.53;;;;;;;2.63;81.07;99396.31;1788010;80;21588;-74
2020/12/07 07:12:47;;;;;;;103.90;34.90;;;;;;;2.65;81.08;99394.83;1788030;80;21175;-74
2020/12/07 07:15:13;;;;;;;71.28;24.37;;;;;;;2.68;81.08;99390.59;1795166;78;21229;-74
2020/12/07 07:17:41;;;;;;;99.70;34.88;;;;;;;2.70;81.07;99388.66;1823781;78;21187;-74
2020/12/07 07:20:09;;;;;;;55.73;24.40;;;;;;;2.72;81.07;99388.84;1823808;78;21041;-74
2020/12/07 07:22:39;;;;;;;67.30;28.32;;;;;;;2.76;81.06;99382.33;1806536;78;21573;-74
2020/12/07 07:28:01;;;;;;;83.82;33.88;;;;;;;2.83;81.02;99376.82;1791317;80;21226;-74
2020/12/07 07:30:22;;;;;;;80.05;33.38;;;;;;;2.87;80.99;99373.41;1814659;78;21159;-74
2020/12/07 07:32:51;;;;;;;70.17;30.40;;;;;;;2.89;80.97;99377.55;1823688;78;21116;-74
2020/12/07 07:35:21;;;;;;;67.62;27.60;;;;;;;2.93;80.96;99374.13;1823507;78;21100;-74
2020/12/07 07:37:47;;;;;;;;;;;;;;;2.96;80.93;99364.62;1825236;78;21147;-74
2020/12/07 07:40:17;;;;;;;35.78;16.80;;;;;;;2.98;80.87;99383.27;1817443;78;21194;-74
2020/12/07 07:42:55;;;;;;;39.42;18.23;;;;;;;3.04;80.84;99369.98;1805964;78;21509;-74
2020/12/07 07:45:24;;;;;;;31.57;15.80;;;;;;;3.09;80.83;99380.92;1791814;78;21163;-74
2020/12/07 07:48:02;;;;;;;38.40;18.42;;;;;;;3.14;80.75;99382.61;1823728;78;21119;-74
2020/12/07 08:15:43;;;;;;;24.02;14.83;;;;;;;3.57;80.15;99391.62;1748242;80;21119;-74
2020/12/07 08:18:04;;;;;;;26.55;14.28;;;;;;;3.62;80.08;99392.01;1750993;80;21148;-73
2020/12/07 08:20:36;;;;;;;29.05;16.85;;;;;;;3.68;80.02;99391.39;1736530;81;21257;-73
2020/12/07 08:23:06;;;;;;;32.08;18.50;;;;;;;3.73;79.95;99395.74;1736534;80;21703;-73
2020/12/07 08:25:49;;;;;;;24.32;14.53;;;;;;;3.79;79.89;99400.41;1740356;81;21152;-73
2020/12/07 08:28:23;;;;;;;23.65;13.85;;;;;;;3.85;79.80;99412.97;1737736;81;21161;-73
2020/12/07 08:31:17;;;;;;;22.45;13.58;;;;;;;3.92;79.71;99403.47;1743220;80;21118;-73
2020/12/07 08:34:02;;;;;;;22.48;13.88;;;;;;;3.96;79.60;99406.98;1723982;81;21298;-73
2020/12/07 08:36:31;;;;;;;27.52;16.52;;;;;;;3.99;79.49;99411.95;1713473;81;21176;-72
2020/12/07 08:38:58;;;;;;;27.05;14.78;;;;;;;4.04;79.41;99400.95;1712727;81;21142;-72
2020/12/07 08:41:28;;;;;;;24.52;13.80;;;;;;;4.07;79.23;99404.59;1709512;81;21143;-72
2020/12/07 08:43:56;;;;;;;24.98;14.87;;;;;;;4.12;79.08;99411.55;1718440;81;21654;-73
2020/12/07 08:46:26;;;;;;;25.05;14.65;;;;;;;4.17;78.98;99406.65;1713881;81;21199;-73
2020/12/07 08:48:52;;;;;;;44.70;27.25;;;;;;;4.22;78.88;99405.68;1714867;81;21181;-73
2020/12/07 08:51:24;;;;;;;26.33;15.18;;;;;;;4.32;78.78;99415.67;1717901;81;21170;-73
2020/12/07 08:53:50;;;;;;;27.45;14.35;;;;;;;4.40;78.60;99405.16;1715830;81;21232;-73
2020/12/07 08:56:17;;;;;;;24.35;14.35;;;;;;;4.45;78.46;99414.77;1716919;81;21660;-73
2020/12/07 08:58:43;;;;;;;66.45;32.30;;;;;;;4.49;78.30;99412.64;1714363;81;21775;-73
2020/12/07 09:01:10;;;;;;;121.35;49.88;;;;;;;4.57;78.18;99423.75;1733394;80;21218;-73
2020/12/07 09:03:37;;;;;;;203.65;89.47;;;;;;;4.61;78.06;99420.63;1721746;81;21128;-73
2020/12/07 09:06:04;;;;;;;118.05;55.12;;;;;;;4.63;77.97;99425.77;1703732;82;21186;-73
2020/12/07 09:08:32;;;;;;;82.37;39.55;;;;;;;4.64;77.84;99415.06;1714720;81;21171;-73
2020/12/07 09:10:58;;;;;;;103.17;45.08;;;;;;;4.63;77.78;99415.20;1714062;81;21207;-74
2020/12/07 09:13:24;;;;;;;73.28;30.37;;;;;;;4.60;77.68;99411.07;1715756;81;21227;-74
2020/12/07 09:15:52;;;;;;;51.83;25.32;;;;;;;4.64;77.59;99406.30;1710252;81;21153;-73
2020/12/07 09:18:20;;;;;;;54.65;26.65;;;;;;;4.65;77.49;99411.90;1733690;80;21792;-73
2020/12/07 09:20:47;;;;;;;71.60;31.73;;;;;;;4.69;77.40;99411.92;1714967;81;21188;-73
2020/12/07 09:23:13;;;;;;;85.07;31.02;;;;;;;4.70;77.33;99412.27;1721397;81;22293;-73
2020/12/07 09:25:40;;;;;;;83.75;28.42;;;;;;;4.68;77.18;99408.97;1724243;81;21173;-73
2020/12/07 09:28:06;;;;;;;76.40;27.65;;;;;;;4.68;77.10;99422.17;1733782;81;21119;-73
2020/12/07 09:30:32;;;;;;;84.17;32.50;;;;;;;4.70;77.07;99426.80;1729519;81;21175;-73
2020/12/07 09:32:59;;;;;;;77.22;29.98;;;;;;;4.75;77.04;99422.69;1724582;81;21160;-73
2020/12/07 09:35:25;;;;;;;102.53;36.23;;;;;;;4.80;77.02;99427.51;1716244;81;22161;-73
2020/12/07 09:37:51;;;;;;;77.65;30.90;;;;;;;4.84;76.98;99432.33;1717129;81;21680;-73
2020/12/07 09:40:17;;;;;;;107.25;38.42;;;;;;;4.87;76.95;99435.14;1754198;79;21199;-73
2020/12/07 09:42:44;;;;;;;60.88;25.17;;;;;;;4.88;76.90;99438.95;1757018;79;21191;-73
2020/12/07 09:45:10;;;;;;;32.78;17.37;;;;;;;4.90;76.85;99430.86;1759321;79;21184;-74
2020/12/07 09:47:37;;;;;;;42.43;20.37;;;;;;;4.92;76.81;99435.02;1730668;79;21258;-74
2020/12/07 09:50:07;;;;;;;43.92;20.25;;;;;;;4.95;76.78;99437.83;1769312;79;21126;-73
2020/12/07 09:52:34;;;;;;;;;;;;;;;4.97;76.74;99426.60;1761718;79;21598;-73
2020/12/07 09:55:00;;;;;;;30.30;17.45;;;;;;;4.98;76.71;99427.78;1762052;79;20306;-74
2020/12/07 09:57:26;;;;;;;33.53;19.62;;;;;;;4.98;76.68;99429.59;1762008;79;21671;-73
2020/12/07 09:59:53;;;;;;;48.17;23.92;;;;;;;4.99;76.66;99424.65;1760545;79;22081;-73
2020/12/07 10:02:19;;;;;;;52.33;24.95;;;;;;;4.99;76.61;99424.65;1761958;80;21208;-74
2020/12/07 10:04:46;;;;;;;41.40;21.20;;;;;;;4.98;76.57;99421.66;1768263;80;21169;-74
2020/12/07 10:07:13;;;;;;;59.95;24.72;;;;;;;4.97;76.52;99425.28;1739398;80;21177;-73
2020/12/07 10:09:39;;;;;;;66.80;27.73;;;;;;;4.98;76.52;99431.73;1758402;81;21181;-73
2020/12/07 10:12:06;;;;;;;56.92;25.23;;;;;;;5.00;76.49;99428.92;1755366;81;21205;-74
2020/12/07 10:14:32;;;;;;;102.82;39.30;;;;;;;5.05;76.48;99434.58;1750408;81;21526;-74
2020/12/07 10:16:58;;;;;;;54.50;23.40;;;;;;;5.14;76.48;99440.22;1747585;81;21129;-74
2020/12/07 10:19:25;;;;;;;63.38;27.25;;;;;;;5.24;76.47;99436.95;1749985;80;21185;-74
2020/12/07 10:21:52;;;;;;;47.45;23.32;;;;;;;5.38;76.43;99438.98;1751295;81;21662;-74
2020/12/07 10:24:19;;;;;;;59.83;31.48;;;;;;;5.50;76.36;99436.87;1761865;80;21127;-74
2020/12/07 10:26:46;;;;;;;52.75;26.45;;;;;;;5.61;76.31;99439.72;1750444;81;21113;-75
2020/12/07 10:29:12;;;;;;;55.70;28.55;;;;;;;5.64;76.23;99436.74;1732348;81;21162;-74
2020/12/07 10:31:38;;;;;;;39.85;19.85;;;;;;;5.66;76.15;99434.78;1739449;81;21665;-74
2020/12/07 10:34:05;;;;;;;40.17;20.80;;;;;;;5.68;76.11;99424.85;1746470;81;21555;-74
2020/12/07 10:36:31;;;;;;;34.05;18.12;;;;;;;5.71;76.06;99428.49;1748008;80;22089;-75
2020/12/07 10:38:57;;;;;;;28.50;16.23;;;;;;;5.74;76.01;99420.23;1754819;81;21221;-74
2020/12/07 10:41:28;;;;;;;31.37;16.32;;;;;;;5.75;75.94;99422.72;1757805;81;21199;-74
2020/12/07 10:43:54;;;;;;;31.23;17.05;;;;;;;5.78;75.86;99430.82;1757730;80;21177;-74
2020/12/07 10:46:21;;;;;;;43.40;20.48;;;;;;;5.81;75.76;99437.94;1754501;81;21629;-74
2020/12/07 10:48:47;;;;;;;29.18;15.00;;;;;;;5.85;75.69;99441.08;1752283;80;21638;-74
2020/12/07 10:51:14;;;;;;;33.23;16.45;;;;;;;5.90;75.60;99430.88;1750653;81;21173;-74
2020/12/07 10:53:40;;;;;;;26.17;14.50;;;;;;;5.94;75.48;99436.18;1754124;81;21252;-74
2020/12/07 10:56:10;;;;;;;45.85;19.85;;;;;;;5.93;75.37;99447.75;1751428;81;21153;-73
2020/12/07 10:58:39;;;;;;;41.65;19.95;;;;;;;5.93;75.26;99446.42;1753678;80;21153;-74
2020/12/07 11:01:06;;;;;;;55.33;23.35;;;;;;;5.88;75.16;99459.30;1750161;81;22178;-74
2020/12/07 11:03:33;;;;;;;37.03;18.50;;;;;;;5.90;75.11;99452.87;1742076;81;21189;-74
2020/12/07 11:06:02;;;;;;;32.53;17.12;;;;;;;5.90;74.98;99451.56;1749569;78;21694;-74
2020/12/07 11:11:14;;;;;;;26.45;15.83;;;;;;;6.01;74.80;99457.03;1813099;77;28023;-75
2020/12/07 11:13:40;;;;;;;26.27;14.75;;;;;;;6.03;74.66;99452.39;1792920;78;21173;-74
2020/12/07 11:16:11;;;;;;;28.40;16.65;;;;;;;6.06;74.53;99451.22;1798145;78;21262;-74
2020/12/07 11:18:38;;;;;;;29.27;15.95;;;;;;;6.12;74.50;99461.17;1809083;78;21045;-75
2020/12/07 11:21:13;;;;;;;30.50;16.65;;;;;;;6.19;74.40;99463.00;1807842;78;21103;-75
2020/12/07 11:23:41;;;;;;;26.75;16.27;;;;;;;6.23;74.29;99468.27;1805091;78;21623;-76
2020/12/07 11:26:09;;;;;;;27.40;16.10;;;;;;;6.25;74.15;99464.98;1821652;78;21143;-76
2020/12/07 11:28:37;;;;;;;26.55;15.40;;;;;;;6.29;74.07;99466.31;1823502;78;21234;-76
2020/12/07 11:31:03;;;;;;;21.93;13.88;;;;;;;6.37;74.02;99472.91;1821608;78;21045;-76
2020/12/07 11:33:30;;;;;;;27.60;17.40;;;;;;;6.39;73.95;99478.88;1822164;78;21146;-75
2020/12/07 11:35:56;;;;;;;31.62;18.57;;;;;;;6.36;73.83;99480.55;1810914;78;21214;-76
2020/12/07 11:38:26;;;;;;;35.83;20.12;;;;;;;6.37;73.80;99484.82;1804660;78;21114;-76
2020/12/07 11:43:55;;;;;;;155.30;78.07;;;;;;;6.39;73.66;99470.94;1838571;77;28429;-75
2020/12/07 11:46:30;;;;;;;261.18;128.38;;;;;;;6.37;73.57;99483.50;1819172;78;21170;-75
2020/12/07 11:48:48;;;;;;;140.52;68.97;;;;;;;6.37;73.54;99482.17;1800021;78;22086;-75
2020/12/07 11:51:14;;;;;;;385.98;198.90;;;;;;;6.37;73.51;99475.55;1798072;78;21797;-74
2020/12/07 11:53:41;;;;;;;162.68;71.15;;;;;;;6.34;73.52;99475.89;1826882;78;21106;-74
2020/12/07 11:56:07;;;;;;;71.37;31.40;;;;;;;6.31;73.46;99466.13;1827386;78;21142;-75
2020/12/07 11:58:33;;;;;;;92.80;44.67;;;;;;;6.25;73.42;99483.52;1827356;78;21111;-74
2020/12/07 12:01:00;;;;;;;69.25;33.33;;;;;;;6.23;73.44;99482.83;1821134;77;21194;-75
2020/12/07 12:03:26;;;;;;;168.57;75.57;;;;;;;6.22;73.38;99483.02;1828121;77;21128;-76